createdAt,value
2022-11-05T03:33:06.241Z,91.00
2022-11-05T03:35:53.990Z,91.02
2022-11-05T03:38:36.549Z,91.17
2022-11-05T03:41:20.924Z,91.00
2022-11-05T03:44:18.602Z,91.42
2022-11-05T03:47:00.797Z,90.91
2022-11-05T03:49:58.012Z,90.98
2022-11-05T03:52:38.894Z,91.37
2022-11-05T03:55:13.981Z,90.67
2022-11-05T03:57:50.067Z,90.30
2022-11-05T04:00:28.083Z,89.69
2022-11-05T04:03:10.295Z,89.06
2022-11-05T04:05:40.785Z,89.53
2022-11-05T04:08:27.983Z,89.77
2022-11-05T04:11:17.315Z,89.84
2022-11-05T04:13:50.039Z,90.64
2022-11-05T04:16:38.532Z,90.44
2022-11-05T04:19:38.466Z,91.03
2022-11-05T04:22:46.963Z,90.68
2022-11-05T04:25:27.885Z,89.56
2022-11-05T04:28:18.038Z,90.28
2022-11-05T04:31:02.902Z,89.15
2022-11-05T04:33:49.839Z,89.23
2022-11-05T04:36:25.799Z,90.38
2022-11-05T04:39:02.871Z,89.42
2022-11-05T04:41:56.020Z,90.82
2022-11-05T04:44:37.842Z,90.10
2022-11-05T04:47:13.185Z,89.50
2022-11-05T04:49:51.504Z,89.40
2022-11-05T04:52:44.409Z,89.04
2022-11-05T04:55:31.913Z,89.93
2022-11-05T04:58:14.202Z,90.01
2022-11-05T05:00:52.378Z,89.48
2022-11-05T05:03:27.891Z,89.30
2022-11-05T05:06:24.210Z,89.17
2022-11-05T05:09:17.477Z,89.27
2022-11-05T05:12:01.354Z,88.98
2022-11-05T05:14:42.081Z,88.80
2022-11-05T05:17:23.063Z,88.59
2022-11-05T05:20:31.279Z,88.70
2022-11-05T05:23:06.212Z,88.62
2022-11-05T05:25:53.402Z,88.30
2022-11-05T05:28:47.360Z,88.90
2022-11-05T05:31:28.416Z,89.26
2022-11-05T05:34:19.962Z,89.38
2022-11-05T05:37:04.528Z,89.65
2022-11-05T05:39:36.656Z,88.36
2022-11-05T05:42:17.889Z,89.64
2022-11-05T05:44:59.178Z,88.69
2022-11-05T05:47:39.858Z,89.08
2022-11-05T05:50:12.430Z,88.18
2022-11-05T05:52:53.904Z,88.32
2022-11-05T05:55:37.502Z,88.67
2022-11-05T05:58:15.888Z,88.41
2022-11-05T06:01:18.339Z,88.48
2022-11-05T06:03:51.606Z,88.54
2022-11-05T06:06:22.817Z,88.50
2022-11-05T06:09:02.801Z,88.45
2022-11-05T06:11:42.869Z,88.59
2022-11-05T06:14:18.755Z,88.47
2022-11-05T06:17:05.426Z,88.94
2022-11-05T06:19:49.685Z,88.49
2022-11-05T06:22:32.293Z,88.58
2022-11-05T06:25:21.384Z,88.45
2022-11-05T06:28:02.004Z,87.89
2022-11-05T06:30:45.884Z,87.85
2022-11-05T06:33:21.029Z,87.19
2022-11-05T06:35:52.547Z,87.14
2022-11-05T06:38:41.892Z,86.80
2022-11-05T06:41:22.035Z,87.21
2022-11-05T06:43:59.591Z,87.35
2022-11-05T06:46:34.759Z,88.25
2022-11-05T06:49:15.365Z,88.00
2022-11-05T06:51:48.788Z,88.08
2022-11-05T06:54:21.647Z,87.94
2022-11-05T06:56:53.833Z,87.60
2022-11-05T06:59:43.811Z,87.87
2022-11-05T07:02:18.818Z,88.19
2022-11-05T07:04:53.031Z,87.46
2022-11-05T07:07:25.724Z,87.95
2022-11-05T07:09:55.952Z,87.73
2022-11-05T07:12:28.719Z,87.17
2022-11-05T07:15:07.876Z,87.55
2022-11-05T07:18:02.497Z,87.30
2022-11-05T07:20:45.629Z,88.22
2022-11-05T07:23:24.780Z,88.23
2022-11-05T07:25:57.310Z,87.15
2022-11-05T07:28:32.302Z,87.29
2022-11-05T07:31:22.279Z,86.69
2022-11-05T07:34:04.198Z,86.94
2022-11-05T07:36:44.963Z,86.43
2022-11-05T07:39:24.549Z,86.59
2022-11-05T07:42:26.623Z,86.14
2022-11-05T07:45:10.471Z,86.16
2022-11-05T07:48:04.374Z,86.44
2022-11-05T07:50:45.501Z,85.37
2022-11-05T07:53:35.564Z,86.35
2022-11-05T07:56:13.246Z,87.08
2022-11-05T07:58:57.552Z,86.03
2022-11-05T08:01:41.370Z,86.77
2022-11-05T08:04:34.757Z,86.54
2022-11-05T08:07:36.152Z,85.31
2022-11-05T08:10:19.960Z,84.95
2022-11-05T08:13:13.410Z,85.59
2022-11-05T08:16:00.943Z,86.00
2022-11-05T08:18:33.492Z,86.87
2022-11-05T08:21:11.358Z,87.07
2022-11-05T08:23:58.628Z,85.04
2022-11-05T08:26:52.630Z,86.52
2022-11-05T08:29:37.730Z,86.84
2022-11-05T08:32:13.464Z,84.57
2022-11-05T08:35:08.884Z,90.96
2022-11-05T08:38:04.738Z,87.64
2022-11-05T08:40:54.534Z,88.73
2022-11-05T08:43:40.130Z,91.43
2022-11-05T08:46:22.928Z,91.80
2022-11-05T08:49:03.983Z,91.60
2022-11-05T08:51:56.979Z,89.67
2022-11-05T08:54:44.747Z,91.28
2022-11-05T08:57:20.718Z,87.60
2022-11-05T08:59:56.213Z,88.13
2022-11-05T09:02:51.726Z,90.57
2022-11-05T09:05:29.227Z,90.65
2022-11-05T09:08:18.252Z,90.02
2022-11-05T09:11:12.615Z,88.49
2022-11-05T09:13:57.349Z,87.68
2022-11-05T09:16:38.429Z,85.94
2022-11-05T09:19:37.965Z,85.54
2022-11-05T09:22:30.455Z,81.58
2022-11-05T09:25:11.120Z,81.86
2022-11-05T09:28:06.759Z,81.14
2022-11-05T09:30:47.779Z,80.07
2022-11-05T09:33:44.122Z,77.56
2022-11-05T09:36:25.322Z,78.54
2022-11-05T09:39:05.791Z,83.92
2022-11-05T09:41:51.880Z,75.23
2022-11-05T09:44:35.687Z,74.84
2022-11-05T09:47:19.711Z,71.77
2022-11-05T09:50:13.563Z,75.81
2022-11-05T09:52:54.633Z,68.74
2022-11-05T09:55:31.585Z,75.63
2022-11-05T09:58:16.436Z,69.55
2022-11-05T10:00:55.778Z,78.24
2022-11-05T10:03:41.472Z,67.85
2022-11-05T10:06:23.708Z,78.54
2022-11-05T10:09:05.824Z,74.52
2022-11-05T10:11:51.382Z,66.18
2022-11-05T10:14:42.150Z,76.35
2022-11-05T10:17:45.041Z,65.99
2022-11-05T10:20:33.852Z,75.31
2022-11-05T10:23:23.937Z,62.02
2022-11-05T10:26:17.465Z,64.50
2022-11-05T10:28:59.731Z,79.36
2022-11-05T10:31:46.206Z,66.45
2022-11-05T10:34:18.649Z,77.63
2022-11-05T10:37:09.444Z,67.90
2022-11-05T10:39:47.028Z,77.90
2022-11-05T10:42:55.612Z,56.83
2022-11-05T10:45:49.893Z,71.59
2022-11-05T10:48:53.098Z,67.92
2022-11-05T10:51:26.144Z,71.74
2022-11-05T10:54:14.435Z,60.04
2022-11-05T10:57:12.920Z,62.83
2022-11-05T10:59:57.314Z,72.61
2022-11-05T11:02:46.110Z,61.85
2022-11-05T11:05:42.554Z,66.71
2022-11-05T11:08:24.423Z,65.27
2022-11-05T11:11:14.493Z,73.79
2022-11-05T11:14:04.722Z,76.62
2022-11-05T11:16:48.607Z,62.66
2022-11-05T11:19:26.706Z,62.25
2022-11-05T11:22:05.641Z,63.57
2022-11-05T11:24:53.988Z,77.06
2022-11-05T11:27:39.477Z,80.22
2022-11-05T11:30:33.919Z,60.89
2022-11-05T11:33:27.302Z,81.86
2022-11-05T11:36:02.836Z,65.87
2022-11-05T11:38:45.379Z,58.37
2022-11-05T11:41:43.658Z,79.83
2022-11-05T11:44:38.805Z,75.40
2022-11-05T11:47:20.836Z,78.36
2022-11-05T11:50:28.012Z,77.79
2022-11-05T11:53:20.488Z,71.38
2022-11-05T11:56:12.685Z,69.82
2022-11-05T11:58:50.335Z,64.48
2022-11-05T12:01:42.509Z,66.64
2022-11-05T12:04:34.240Z,79.04
2022-11-05T12:07:43.180Z,70.89
2022-11-05T12:10:36.457Z,82.76
2022-11-05T12:13:21.324Z,82.89
2022-11-05T12:15:56.202Z,71.90
2022-11-05T12:19:04.075Z,71.16
2022-11-05T12:21:57.319Z,67.82
2022-11-05T12:24:52.171Z,86.20
2022-11-05T12:27:41.851Z,72.65
2022-11-05T12:30:30.293Z,70.08
2022-11-05T12:33:20.798Z,65.00
2022-11-05T12:36:04.583Z,65.79
2022-11-05T12:38:55.985Z,72.65
2022-11-05T12:41:55.906Z,67.08
2022-11-05T12:44:54.369Z,71.09
2022-11-05T12:47:47.378Z,64.01
2022-11-05T12:50:22.532Z,65.48
2022-11-05T12:53:34.895Z,66.55
2022-11-05T12:56:20.120Z,62.31
2022-11-05T12:59:02.398Z,66.08
2022-11-05T13:01:56.940Z,64.11
2022-11-05T13:05:15.658Z,62.45
2022-11-05T13:08:05.568Z,64.83
2022-11-05T13:10:45.823Z,66.32
2022-11-05T13:13:38.814Z,65.61
2022-11-05T13:16:31.512Z,62.52
2022-11-05T13:19:14.107Z,65.53
2022-11-05T13:21:44.618Z,61.16
2022-11-05T13:24:48.813Z,59.87
2022-11-05T13:27:43.139Z,61.20
2022-11-05T13:30:20.918Z,63.06
2022-11-05T13:32:56.079Z,61.76
2022-11-05T13:35:29.318Z,64.26
2022-11-05T13:38:23.251Z,64.71
2022-11-05T13:41:04.986Z,59.69
2022-11-05T13:43:57.748Z,63.02
2022-11-05T13:46:33.745Z,64.34
2022-11-05T13:49:43.246Z,62.70
2022-11-05T13:52:31.268Z,61.48
2022-11-05T13:55:25.426Z,60.77
2022-11-05T13:58:04.395Z,63.52
2022-11-05T14:00:45.331Z,61.16
2022-11-05T14:03:23.636Z,60.93
2022-11-05T14:06:18.308Z,62.34
2022-11-05T14:08:49.160Z,62.91
2022-11-05T14:11:30.556Z,63.79
2022-11-05T14:14:06.116Z,62.82
2022-11-05T14:16:53.133Z,65.63
2022-11-05T14:19:34.147Z,64.68
2022-11-05T14:22:33.304Z,64.31
2022-11-05T14:25:29.384Z,64.63
2022-11-05T14:28:06.888Z,65.50
2022-11-05T14:30:54.024Z,66.10
2022-11-05T14:33:36.429Z,66.20
2022-11-05T14:36:21.225Z,66.87
2022-11-05T14:39:15.606Z,67.16
2022-11-05T14:42:06.362Z,63.89
2022-11-05T14:44:58.917Z,63.96
2022-11-05T14:47:42.354Z,65.40
2022-11-05T14:50:20.079Z,64.25
2022-11-05T14:53:04.834Z,66.38
2022-11-05T14:55:44.538Z,65.23
2022-11-05T14:58:33.416Z,65.70
2022-11-05T15:01:07.393Z,64.91
2022-11-05T15:03:49.317Z,65.99
2022-11-05T15:06:33.127Z,64.86
2022-11-05T15:09:23.443Z,65.66
2022-11-05T15:11:59.225Z,66.22
2022-11-05T15:15:04.459Z,67.23
2022-11-05T15:18:05.318Z,67.40
2022-11-05T15:20:42.407Z,67.00
2022-11-05T15:23:16.274Z,67.60
2022-11-05T15:26:05.914Z,67.68
2022-11-05T15:28:59.229Z,68.40
2022-11-05T15:31:41.596Z,67.08
2022-11-05T15:34:29.834Z,67.45
2022-11-05T15:37:23.920Z,67.82
2022-11-05T15:39:58.055Z,68.48
2022-11-05T15:42:31.560Z,68.38
2022-11-05T15:45:03.905Z,69.33
2022-11-05T15:47:48.835Z,69.85
2022-11-05T15:50:39.592Z,71.01
2022-11-05T15:54:01.761Z,71.45
2022-11-05T15:56:38.305Z,70.15
2022-11-05T15:59:20.436Z,69.96
2022-11-05T16:02:02.132Z,69.45
2022-11-05T16:04:34.742Z,69.41
2022-11-05T16:07:17.520Z,70.42
2022-11-05T16:10:01.496Z,70.16
2022-11-05T16:12:39.157Z,70.26
2022-11-05T16:15:24.406Z,70.92
2022-11-05T16:18:00.629Z,70.04
2022-11-05T16:20:59.416Z,71.17
2022-11-05T16:23:44.641Z,72.28
2022-11-05T16:29:37.324Z,72.27
2022-11-05T16:32:26.910Z,72.27
2022-11-05T16:35:08.522Z,73.06
2022-11-05T16:37:52.062Z,73.69
2022-11-05T16:44:40.638Z,73.54
2022-11-05T16:56:45.348Z,74.72
2022-11-05T16:59:23.479Z,75.30
2022-11-05T17:01:56.179Z,75.27
2022-11-05T17:04:31.415Z,75.14
2022-11-05T17:07:09.653Z,74.51
2022-11-05T17:09:39.585Z,74.57
2022-11-05T17:12:15.243Z,73.85
2022-11-05T17:14:50.237Z,74.85
2022-11-05T17:17:20.060Z,75.52
2022-11-05T17:19:53.417Z,75.05
2022-11-05T17:22:28.283Z,75.24
2022-11-05T17:25:00.718Z,75.53
2022-11-05T17:27:30.561Z,75.40
2022-11-05T17:29:59.940Z,76.96
2022-11-05T17:32:40.038Z,76.06
2022-11-05T17:35:19.279Z,77.29
2022-11-05T17:37:59.184Z,76.64
2022-11-05T17:40:36.915Z,74.91
2022-11-05T17:43:10.624Z,75.16
2022-11-05T17:45:58.627Z,74.33
2022-11-05T17:48:34.119Z,75.22
2022-11-05T17:51:12.346Z,74.97
2022-11-05T17:53:39.763Z,74.43
2022-11-05T17:56:24.538Z,73.79
2022-11-05T17:59:08.035Z,75.90
2022-11-05T18:01:49.000Z,78.24
2022-11-05T18:04:27.384Z,79.56
2022-11-05T18:06:59.559Z,79.55
2022-11-05T18:09:33.100Z,79.90
2022-11-05T18:12:05.408Z,78.46
2022-11-05T18:14:37.430Z,80.50
2022-11-05T18:17:10.398Z,77.74
2022-11-05T18:19:45.068Z,78.22
2022-11-05T18:22:20.399Z,79.01
2022-11-05T18:24:54.341Z,79.73
2022-11-05T18:27:28.845Z,79.69
2022-11-05T18:30:01.426Z,80.33
2022-11-05T18:32:34.097Z,78.53
2022-11-05T18:35:13.576Z,78.48
2022-11-05T18:37:45.595Z,78.40
2022-11-05T18:40:28.754Z,81.37
2022-11-05T18:42:55.664Z,82.13
2022-11-05T18:45:33.451Z,83.69
2022-11-05T18:48:06.082Z,83.47
2022-11-05T18:50:42.568Z,82.16
2022-11-05T18:53:20.408Z,84.51
2022-11-05T18:55:54.870Z,84.46
2022-11-05T18:58:32.520Z,84.78
2022-11-05T19:01:06.759Z,85.55
2022-11-05T19:03:42.202Z,83.54
2022-11-05T19:06:12.482Z,86.01
2022-11-05T19:08:42.818Z,84.79
2022-11-05T19:11:22.830Z,81.27
2022-11-05T19:13:52.910Z,81.09
2022-11-05T19:16:27.283Z,81.88
2022-11-05T19:19:11.781Z,82.46
2022-11-05T19:21:46.857Z,83.08
2022-11-05T19:24:27.627Z,83.15
2022-11-05T19:27:08.045Z,84.67
2022-11-05T19:29:34.940Z,84.39
2022-11-05T19:32:13.578Z,85.87
2022-11-05T19:34:55.285Z,85.86
2022-11-05T19:37:30.331Z,85.46
2022-11-05T19:40:05.633Z,86.11
2022-11-05T19:42:38.622Z,86.38
2022-11-05T19:45:38.333Z,85.48
2022-11-05T19:48:06.340Z,86.61
2022-11-05T19:50:36.250Z,85.73
2022-11-05T19:53:06.207Z,87.39
2022-11-05T19:55:44.347Z,86.00
2022-11-05T19:58:19.867Z,86.99
2022-11-05T20:00:58.132Z,86.57
2022-11-05T20:03:37.749Z,86.83
2022-11-05T20:06:15.205Z,87.20
2022-11-05T20:09:20.436Z,87.74
2022-11-05T20:11:47.800Z,87.29
2022-11-05T20:14:20.617Z,85.88
2022-11-05T20:16:56.715Z,85.15
2022-11-05T20:19:35.245Z,87.10
2022-11-05T20:22:04.764Z,87.17
2022-11-05T20:24:51.624Z,86.39
2022-11-05T20:27:27.246Z,87.32
2022-11-05T20:30:10.394Z,86.97
2022-11-05T20:32:47.352Z,87.32
2022-11-05T20:35:28.309Z,87.94
2022-11-05T20:38:00.636Z,88.33
2022-11-05T20:40:35.899Z,88.49
2022-11-05T20:43:11.906Z,88.88
2022-11-05T20:45:52.867Z,89.04
2022-11-05T20:48:30.245Z,88.77
2022-11-05T20:51:09.143Z,87.62
2022-11-05T20:53:41.679Z,88.67
2022-11-05T20:56:22.833Z,88.79
2022-11-05T20:59:02.295Z,87.46
2022-11-05T21:01:45.130Z,86.71
2022-11-05T21:04:16.304Z,82.79
2022-11-05T21:06:47.944Z,86.27
2022-11-05T21:09:28.527Z,84.92
2022-11-05T21:12:12.658Z,86.11
2022-11-05T21:14:52.256Z,86.95
2022-11-05T21:17:33.837Z,87.98
2022-11-05T21:20:09.337Z,86.91
2022-11-05T21:22:43.481Z,87.83
2022-11-05T21:25:18.339Z,88.32
2022-11-05T21:28:14.491Z,87.64
2022-11-05T21:30:47.644Z,88.82
2022-11-05T21:33:18.685Z,88.40
2022-11-05T21:35:50.906Z,87.44
2022-11-05T21:38:28.954Z,86.12
2022-11-05T21:41:10.074Z,87.55
2022-11-05T21:43:45.190Z,88.58
2022-11-05T21:46:22.595Z,88.01
2022-11-05T21:49:11.595Z,86.89
2022-11-05T21:52:04.897Z,86.71
2022-11-05T21:54:56.295Z,84.17
2022-11-05T21:57:54.349Z,81.91
2022-11-05T22:00:32.313Z,85.01
2022-11-05T22:03:14.947Z,84.06
2022-11-05T22:06:04.433Z,86.97
2022-11-05T22:08:40.400Z,88.04
2022-11-05T22:11:12.431Z,87.37
2022-11-05T22:13:45.895Z,85.34
2022-11-05T22:16:23.783Z,86.55
2022-11-05T22:18:54.212Z,84.84
2022-11-05T22:21:32.135Z,85.73
2022-11-05T22:24:04.437Z,86.84
2022-11-05T22:26:40.144Z,87.01
2022-11-05T22:29:16.267Z,86.81
2022-11-05T22:31:51.190Z,86.52
2022-11-05T22:34:35.260Z,86.29
2022-11-05T22:37:12.085Z,86.88
2022-11-05T22:39:47.239Z,85.34
2022-11-05T22:42:22.357Z,86.61
2022-11-05T22:44:59.284Z,87.36
2022-11-05T22:47:34.115Z,88.19
2022-11-05T22:50:06.425Z,88.39
2022-11-05T22:52:36.500Z,85.06
2022-11-05T22:55:11.893Z,87.72
2022-11-05T22:57:50.622Z,87.30
2022-11-05T23:00:36.875Z,87.30
2022-11-05T23:03:11.902Z,86.90
2022-11-05T23:05:43.612Z,87.87
2022-11-05T23:08:31.391Z,87.88
2022-11-05T23:11:22.060Z,87.10
2022-11-05T23:13:56.899Z,87.83
2022-11-05T23:16:45.469Z,88.34
2022-11-05T23:19:31.460Z,88.48
2022-11-05T23:22:29.688Z,89.07
2022-11-05T23:25:02.556Z,89.35
2022-11-05T23:27:38.401Z,89.53
2022-11-05T23:30:15.587Z,88.89
2022-11-05T23:32:59.834Z,89.17
2022-11-05T23:35:50.404Z,89.64
2022-11-05T23:38:34.997Z,89.79
2022-11-05T23:41:26.384Z,89.60
2022-11-05T23:44:20.124Z,89.86
2022-11-05T23:47:13.795Z,89.98
2022-11-05T23:49:47.080Z,90.44
2022-11-05T23:52:22.612Z,87.56
2022-11-05T23:54:54.992Z,86.98
2022-11-05T23:57:30.015Z,88.29
2022-11-05T23:59:59.943Z,89.53
